Terminal Aerodrome Forecast
Issued by NWS Albany, NY

Home | Current Version | Previous Version | Text Only | Print | Product List | Glossary On
Versions: 1 2 3 4 5 6 7 8 9 10 11 12 13 14 15 16 17 18 19 20 21 22
000
FTUS41 KALY 311100
TAFGFL
TAF
KGFL 311120Z 3112/0112 34007KT P6SM SKC
     FM311600 36010G17KT P6SM FEW040
     FM312200 33006KT P6SM SCT060
     FM010300 24003KT P6SM BKN045
     FM010800 VRB03KT P6SM SCT025 BKN035=

USA.gov is the U.S. government's official web portal to all federal, state and local government web resources and services.